Time;durP1;ratioP1;P1;durP2;ratioP2;P2;SDS_P1;SDS_P2;PMS_P1;PMS_P2;Temp;Humidity;BMP_temperature;BMP_pressure;BME280_temperature;BME280_humidity;BME280_pressure;Samples;Min_cycle;Max_cycle;Signal;HPM_P1;HPM_P2
2022/06/06 00:00:52;;;;;;;7.20;5.03;;;23.50;85.00;;;;;;5054113;28;20045;-62
2022/06/06 00:03:18;;;;;;;7.43;4.80;;;23.50;87.90;;;;;;5051682;28;20392;-63
2022/06/06 00:05:47;;;;;;;6.97;4.10;;;23.60;88.40;;;;;;5051685;28;20036;-62
2022/06/06 00:08:13;;;;;;;6.78;4.72;;;23.50;85.30;;;;;;5053394;28;20099;-63
2022/06/06 00:10:42;;;;;;;6.13;4.53;;;23.20;87.70;;;;;;5043819;28;20052;-62
2022/06/06 00:13:08;;;;;;;6.05;4.25;;;23.50;88.00;;;;;;5061933;28;20473;-62
2022/06/06 00:15:34;;;;;;;6.68;4.50;;;23.60;85.20;;;;;;5049205;28;20041;-62
2022/06/06 00:18:01;;;;;;;6.78;4.63;;;23.30;84.70;;;;;;5062016;28;20041;-62
2022/06/06 00:20:27;;;;;;;7.18;4.30;;;23.30;85.00;;;;;;5043788;28;20095;-62
2022/06/06 00:22:53;;;;;;;6.53;4.60;;;23.50;84.80;;;;;;5052352;28;20041;-63
2022/06/06 00:25:19;;;;;;;6.15;4.70;;;23.70;85.00;;;;;;5052173;28;20110;-62
2022/06/06 00:27:44;;;;;;;7.13;4.78;;;23.60;87.80;;;;;;5048220;28;20045;-63
2022/06/06 00:30:10;;;;;;;6.15;4.60;;;23.50;87.90;;;;;;5037781;28;20095;-62
2022/06/06 00:35:21;;;;;;;6.80;4.60;;;;;;;;;;5051870;28;20045;-64
2022/06/06 00:37:47;;;;;;;7.07;4.65;;;23.30;83.00;;;;;;5046750;28;20510;-63
2022/06/06 00:40:14;;;;;;;6.13;4.32;;;23.40;88.10;;;;;;5052408;28;20162;-63
2022/06/06 00:42:41;;;;;;;7.55;4.10;;;23.50;87.70;;;;;;5048776;28;20142;-63
2022/06/06 00:45:19;;;;;;;6.30;4.50;;;23.60;87.70;;;;;;5048089;28;20079;-62
2022/06/06 00:48:04;;;;;;;7.00;4.63;;;23.70;88.10;;;;;;5050048;28;20053;-63
2022/06/06 00:50:53;;;;;;;6.63;4.35;;;23.50;83.50;;;;;;5051090;28;20033;-62
2022/06/06 00:53:25;;;;;;;6.47;4.47;;;23.50;87.80;;;;;;5048626;28;20041;-63
2022/06/06 00:55:53;;;;;;;8.20;4.57;;;23.80;83.80;;;;;;5048475;28;20037;-62
2022/06/06 00:58:22;;;;;;;5.97;4.53;;;23.30;87.60;;;;;;5056917;28;20387;-63
2022/06/06 01:00:48;;;;;;;6.93;4.60;;;23.60;87.80;;;;;;5049362;28;20051;-62
2022/06/06 01:03:15;;;;;;;6.53;4.78;;;23.60;84.50;;;;;;5060157;28;20123;-63
2022/06/06 01:05:41;;;;;;;6.55;4.78;;;23.40;88.00;;;;;;5017081;28;20111;-63
2022/06/06 01:08:07;;;;;;;6.20;4.43;;;23.70;86.00;;;;;;5032706;28;20047;-62
2022/06/06 01:10:34;;;;;;;6.93;4.43;;;23.50;87.70;;;;;;5050849;28;20493;-62
2022/06/06 01:13:00;;;;;;;7.35;4.70;;;23.50;85.00;;;;;;5050227;28;20409;-62
2022/06/06 01:15:26;;;;;;;6.38;4.53;;;23.50;84.80;;;;;;5051050;28;20049;-62
2022/06/06 01:18:12;;;;;;;12.85;4.90;;;23.50;87.70;;;;;;5049776;28;20493;-62
2022/06/06 01:21:03;;;;;;;5.97;4.25;;;23.50;87.60;;;;;;5044482;28;20053;-62
2022/06/06 01:23:29;;;;;;;6.45;4.30;;;23.50;87.60;;;;;;5049068;28;20051;-62
2022/06/06 01:26:13;;;;;;;6.05;4.35;;;23.20;84.60;;;;;;5053596;28;20041;-62
2022/06/06 01:28:57;;;;;;;6.65;4.28;;;23.20;83.60;;;;;;5052026;28;20071;-62
2022/06/06 01:31:48;;;;;;;5.40;3.80;;;23.70;85.50;;;;;;5045578;28;20395;-63
2022/06/06 01:34:23;;;;;;;5.88;4.00;;;23.30;83.80;;;;;;5045890;28;20044;-62
2022/06/06 01:36:50;;;;;;;6.68;4.13;;;23.40;87.70;;;;;;5043652;28;20094;-64
2022/06/06 01:39:16;;;;;;;7.15;4.80;;;23.40;87.60;;;;;;5051250;28;20091;-62
2022/06/06 01:41:52;;;;;;;5.93;4.10;;;23.50;87.70;;;;;;5048217;28;20072;-63
2022/06/06 01:44:38;;;;;;;5.78;3.55;;;23.70;84.00;;;;;;5052171;28;20041;-63
2022/06/06 01:47:05;;;;;;;7.55;4.00;;;23.50;87.90;;;;;;5049699;28;20072;-63
2022/06/06 01:49:32;;;;;;;7.90;3.90;;;23.40;85.10;;;;;;5050835;28;20051;-63
2022/06/06 01:52:04;;;;;;;5.35;3.83;;;23.30;87.70;;;;;;5047623;28;20036;-61
2022/06/06 01:54:29;;;;;;;5.22;3.47;;;23.50;88.50;;;;;;5033440;28;20124;-62
2022/06/06 01:56:55;;;;;;;6.53;3.60;;;23.30;85.20;;;;;;5038069;28;20128;-62
2022/06/06 01:59:22;;;;;;;5.13;3.30;;;23.50;85.00;;;;;;5051035;28;20041;-63
2022/06/06 02:01:47;;;;;;;5.30;3.22;;;23.50;87.80;;;;;;5050832;28;20406;-62
2022/06/06 02:04:13;;;;;;;6.75;3.03;;;23.40;84.80;;;;;;5047967;28;20037;-63
2022/06/06 02:06:39;;;;;;;5.53;3.20;;;23.70;84.90;;;;;;5052071;28;20128;-62
2022/06/06 02:09:05;;;;;;;4.57;2.88;;;23.30;88.00;;;;;;5050342;28;20055;-63
2022/06/06 02:11:30;;;;;;;4.55;2.75;;;23.20;87.60;;;;;;5053963;28;20057;-62
2022/06/06 02:13:56;;;;;;;5.45;2.78;;;23.40;84.70;;;;;;5064724;28;20091;-62
2022/06/06 02:16:23;;;;;;;4.95;2.88;;;23.30;85.00;;;;;;5038720;28;20387;-62
2022/06/06 02:18:49;;;;;;;5.03;2.70;;;23.60;87.90;;;;;;5052187;28;20045;-62
2022/06/06 02:21:16;;;;;;;4.13;2.60;;;23.40;85.10;;;;;;5041607;28;20410;-63
2022/06/06 02:23:43;;;;;;;4.97;2.72;;;23.50;85.10;;;;;;5053707;28;20052;-62
2022/06/06 02:26:09;;;;;;;5.15;2.90;;;23.40;85.30;;;;;;5046255;28;20049;-63
2022/06/06 02:28:36;;;;;;;4.05;2.53;;;23.30;85.20;;;;;;5047665;28;20041;-62
2022/06/06 02:31:03;;;;;;;6.10;3.15;;;23.60;88.50;;;;;;5036152;28;20517;-62
2022/06/06 02:33:28;;;;;;;4.10;2.50;;;23.40;88.40;;;;;;5053572;28;20060;-62
2022/06/06 02:35:54;;;;;;;4.03;2.47;;;23.20;85.00;;;;;;5054502;28;20045;-62
2022/06/06 02:38:20;;;;;;;5.00;2.60;;;23.30;84.90;;;;;;5054482;28;20510;-62
2022/06/06 02:40:46;;;;;;;4.55;2.50;;;23.30;85.10;;;;;;5053338;28;20483;-63
2022/06/06 02:43:12;;;;;;;4.13;2.38;;;23.20;84.90;;;;;;5051398;28;20044;-62
2022/06/06 02:45:39;;;;;;;5.15;2.60;;;23.20;85.20;;;;;;5043618;28;20044;-62
2022/06/06 02:48:05;;;;;;;3.70;2.38;;;23.50;88.10;;;;;;5055289;28;20067;-62
2022/06/06 02:50:32;;;;;;;4.95;2.75;;;;;;;;;;5053878;28;20048;-63
2022/06/06 02:52:58;;;;;;;3.65;2.17;;;23.30;83.50;;;;;;5053930;28;20063;-62
2022/06/06 02:55:24;;;;;;;4.80;2.42;;;23.30;88.10;;;;;;5036876;28;20407;-63
2022/06/06 02:57:51;;;;;;;3.83;2.17;;;23.30;88.10;;;;;;5048056;28;20046;-63
2022/06/06 03:00:20;;;;;;;4.25;2.28;;;23.20;88.40;;;;;;5066248;28;20050;-62
2022/06/06 03:02:47;;;;;;;4.57;2.60;;;;;;;;;;5046883;28;20045;-63
2022/06/06 03:05:13;;;;;;;7.47;2.53;;;23.10;83.30;;;;;;5055093;28;20039;-62
2022/06/06 03:07:48;;;;;;;4.10;2.30;;;23.30;85.40;;;;;;5052504;28;20067;-63
2022/06/06 03:10:32;;;;;;;5.25;2.83;;;23.20;84.20;;;;;;5054070;28;20045;-62
2022/06/06 03:13:16;;;;;;;4.00;2.47;;;23.20;88.30;;;;;;5052091;28;20061;-62
2022/06/06 03:20:46;;;;;;;4.10;2.28;;;23.20;84.00;;;;;;5054973;28;20041;-63
2022/06/06 03:22:13;;;;;;;4.25;2.33;;;23.30;88.30;;;;;;5051211;28;20049;-63
2022/06/06 03:24:57;;;;;;;4.05;2.25;;;23.10;88.00;;;;;;5035849;28;20162;-63
2022/06/06 03:27:23;;;;;;;3.67;2.22;;;23.10;88.00;;;;;;5051482;28;20033;-62
2022/06/06 03:30:19;;;;;;;3.92;2.17;;;23.10;85.20;;;;;;5047053;28;20048;-62
2022/06/06 03:33:06;;;;;;;4.13;2.20;;;23.00;88.30;;;;;;5047047;28;20083;-62
2022/06/06 03:35:53;;;;;;;4.70;2.30;;;23.00;84.40;;;;;;5049481;28;20116;-63
2022/06/06 03:38:33;;;;;;;3.78;2.10;;;23.00;87.90;;;;;;5051997;28;20057;-62
2022/06/06 03:41:02;;;;;;;4.25;2.45;;;23.00;88.00;;;;;;5052217;28;20049;-63
2022/06/06 03:43:46;;;;;;;3.63;2.10;;;23.10;83.40;;;;;;5052565;28;20044;-63
2022/06/06 03:46:26;;;;;;;3.83;2.17;;;23.00;84.30;;;;;;5053936;28;20045;-63
2022/06/06 03:49:11;;;;;;;3.63;2.10;;;23.20;88.20;;;;;;5049628;28;20479;-62
2022/06/06 03:51:42;;;;;;;3.10;1.95;;;22.80;87.90;;;;;;5049250;28;20041;-62
2022/06/06 03:54:16;;;;;;;3.70;2.10;;;23.10;83.50;;;;;;5046505;28;20049;-63
2022/06/06 03:56:54;;;;;;;4.45;2.15;;;23.20;84.20;;;;;;5053445;28;20040;-62
2022/06/06 03:59:20;;;;;;;4.63;2.20;;;23.10;88.20;;;;;;5053445;28;20052;-62
2022/06/06 04:01:46;;;;;;;3.50;2.10;;;23.00;88.70;;;;;;5036366;28;20531;-62
2022/06/06 04:04:12;;;;;;;3.63;2.13;;;22.80;88.00;;;;;;5047719;28;20052;-62
2022/06/06 04:06:37;;;;;;;3.65;2.00;;;22.80;88.20;;;;;;5050231;28;20146;-63
2022/06/06 04:09:03;;;;;;;3.33;1.92;;;22.80;88.60;;;;;;5025999;28;20376;-62
2022/06/06 04:11:29;;;;;;;5.53;2.13;;;23.20;88.20;;;;;;5043535;28;20049;-62
2022/06/06 04:14:16;;;;;;;3.50;1.90;;;22.90;88.20;;;;;;5035033;28;20049;-62
2022/06/06 04:16:59;;;;;;;4.40;2.30;;;23.10;83.80;;;;;;5052609;28;20406;-62
2022/06/06 04:19:39;;;;;;;3.45;1.92;;;23.00;84.30;;;;;;5051335;28;20418;-62
2022/06/06 04:22:20;;;;;;;4.53;2.25;;;23.10;84.30;;;;;;5048100;28;20052;-63
2022/06/06 04:25:14;;;;;;;3.13;1.60;;;23.00;88.10;;;;;;5048658;28;20504;-62
2022/06/06 04:27:45;;;;;;;3.55;1.85;;;22.80;88.00;;;;;;5047189;28;20049;-71
2022/06/06 04:30:26;;;;;;;3.25;1.77;;;23.20;85.60;;;;;;5063178;28;20036;-63
2022/06/06 04:32:58;;;;;;;3.42;1.90;;;23.10;88.30;;;;;;5049956;28;20153;-62
2022/06/06 04:35:48;;;;;;;4.95;1.90;;;22.90;83.90;;;;;;5053326;28;20132;-62
2022/06/06 04:38:34;;;;;;;4.10;1.90;;;22.90;84.30;;;;;;5050125;28;20053;-62
2022/06/06 04:41:12;;;;;;;3.58;1.95;;;23.00;88.20;;;;;;5038790;28;20092;-62
2022/06/06 04:43:54;;;;;;;3.60;1.67;;;23.10;88.30;;;;;;5047591;28;20041;-62
2022/06/06 04:46:22;;;;;;;3.65;1.75;;;22.90;85.00;;;;;;5050433;28;20048;-63
2022/06/06 04:48:47;;;;;;;3.80;1.80;;;22.70;85.10;;;;;;5049663;28;20044;-62
2022/06/06 04:51:16;;;;;;;2.97;1.73;;;22.90;88.50;;;;;;5050043;28;20078;-63
2022/06/06 04:53:41;;;;;;;3.33;1.60;;;22.90;88.60;;;;;;5051266;28;20124;-62
2022/06/06 04:56:07;;;;;;;2.90;1.60;;;22.80;88.20;;;;;;5035184;28;20123;-63
2022/06/06 04:58:33;;;;;;;8.63;2.35;;;23.00;85.20;;;;;;5049851;28;20076;-63
2022/06/06 05:01:01;;;;;;;3.63;1.90;;;22.90;88.50;;;;;;5045975;28;20414;-62
2022/06/06 05:03:27;;;;;;;3.22;1.73;;;;;;;;;;5050541;28;20045;-63
2022/06/06 05:06:26;;;;;;;3.28;1.77;;;22.90;88.20;;;;;;5049628;28;20056;-62
2022/06/06 05:09:02;;;;;;;4.13;1.77;;;22.90;88.30;;;;;;5046786;28;20491;-62
2022/06/06 05:11:44;;;;;;;3.75;1.92;;;22.90;88.20;;;;;;5067443;28;20473;-62
2022/06/06 05:14:31;;;;;;;3.88;2.10;;;23.00;84.40;;;;;;5053754;28;20045;-62
2022/06/06 05:17:09;;;;;;;3.67;1.80;;;22.90;88.40;;;;;;5051286;28;20049;-62
2022/06/06 05:19:41;;;;;;;3.47;1.98;;;22.90;88.40;;;;;;5035534;28;20045;-62
2022/06/06 05:22:33;;;;;;;2.97;1.77;;;23.00;85.50;;;;;;5051583;28;20056;-62
2022/06/06 05:25:22;;;;;;;3.70;2.00;;;22.90;88.90;;;;;;5035609;28;20053;-62
2022/06/06 05:28:16;;;;;;;4.22;2.00;;;22.90;88.20;;;;;;5039499;28;20394;-62
2022/06/06 05:31:00;;;;;;;3.70;2.05;;;22.80;88.10;;;;;;4960609;28;20060;-62
2022/06/06 05:33:48;;;;;;;4.07;2.10;;;22.80;88.10;;;;;;4989334;28;20141;-62
2022/06/06 05:36:35;;;;;;;4.72;2.20;;;22.90;88.50;;;;;;4950051;28;20476;-63
2022/06/06 05:39:14;;;;;;;3.95;1.95;;;23.00;89.00;;;;;;4972632;28;20057;-62
2022/06/06 05:41:56;;;;;;;4.10;2.00;;;22.90;88.10;;;;;;4974198;28;20121;-63
2022/06/06 05:44:49;;;;;;;4.00;2.10;;;23.00;84.40;;;;;;4980224;28;20133;-62
2022/06/06 05:47:27;;;;;;;4.93;2.85;;;22.80;84.30;;;;;;4978256;28;20050;-62
2022/06/06 05:49:58;;;;;;;4.25;2.33;;;23.10;88.30;;;;;;4978247;28;20400;-62
2022/06/06 05:52:39;;;;;;;4.40;2.30;;;22.80;88.20;;;;;;4994230;28;20082;-62
2022/06/06 05:55:14;;;;;;;4.93;2.50;;;23.10;88.30;;;;;;4994995;28;20180;-62
2022/06/06 05:57:52;;;;;;;5.63;3.17;;;23.00;88.60;;;;;;4994848;28;20061;-63
2022/06/06 06:00:26;;;;;;;5.50;2.83;;;22.80;88.10;;;;;;4994318;28;20557;-63
2022/06/06 06:03:04;;;;;;;5.75;3.00;;;22.90;88.10;;;;;;4962337;28;20050;-63
2022/06/06 06:05:43;;;;;;;5.50;2.90;;;22.90;84.10;;;;;;4994880;28;20050;-62
2022/06/06 06:08:18;;;;;;;5.95;3.00;;;22.90;88.10;;;;;;5024543;28;20045;-63
2022/06/06 06:10:54;;;;;;;5.07;2.60;;;22.70;87.90;;;;;;5054697;28;20080;-62
2022/06/06 06:13:50;;;;;;;5.25;2.97;;;22.70;84.10;;;;;;5053069;28;20407;-62
2022/06/06 06:16:17;;;;;;;5.32;3.10;;;22.70;87.90;;;;;;5053969;28;20045;-62
2022/06/06 06:18:52;;;;;;;5.80;3.22;;;22.80;87.90;;;;;;5055967;28;20056;-62
2022/06/06 06:21:29;;;;;;;6.43;3.63;;;22.60;84.60;;;;;;5052536;28;20080;-63
2022/06/06 06:24:05;;;;;;;6.35;3.65;;;22.90;88.00;;;;;;5061344;28;20037;-62
2022/06/06 06:26:31;;;;;;;5.60;3.35;;;22.80;87.80;;;;;;5060345;28;20052;-62
2022/06/06 06:28:59;;;;;;;6.80;4.03;;;22.70;87.80;;;;;;5051519;28;20090;-63
2022/06/06 06:31:31;;;;;;;5.93;3.80;;;22.90;87.80;;;;;;5051821;28;20045;-70
2022/06/06 06:34:24;;;;;;;6.20;3.85;;;22.70;88.20;;;;;;5052895;28;20081;-64
2022/06/06 06:37:02;;;;;;;7.03;4.47;;;22.80;88.40;;;;;;5055119;28;20087;-63
2022/06/06 06:39:33;;;;;;;7.93;4.65;;;22.80;88.00;;;;;;5052114;28;20037;-63
2022/06/06 06:42:24;;;;;;;73.78;10.73;;;22.70;87.70;;;;;;5047644;28;20128;-65
2022/06/06 06:44:55;;;;;;;30.95;7.95;;;22.70;87.60;;;;;;5053560;28;20076;-63
2022/06/06 06:47:29;;;;;;;28.63;7.88;;;22.90;85.20;;;;;;5059635;28;20086;-63
2022/06/06 06:50:18;;;;;;;23.35;6.95;;;22.60;88.00;;;;;;5037468;28;20048;-63
2022/06/06 06:52:43;;;;;;;34.58;8.93;;;22.10;87.80;;;;;;4976407;28;20451;-63
2022/06/06 06:55:26;;;;;;;22.23;7.80;;;22.40;88.50;;;;;;4993529;28;20129;-67
2022/06/06 06:57:58;;;;;;;19.35;8.05;;;22.10;83.50;;;;;;4975967;28;20054;-64
2022/06/06 07:00:24;;;;;;;20.67;8.53;;;22.20;88.50;;;;;;4989320;28;20046;-72
2022/06/06 07:09:14;;;;;;;12.02;7.60;;;22.00;84.10;;;;;;4931717;29;20062;-63
2022/06/06 07:11:59;;;;;;;12.40;7.40;;;22.00;88.80;;;;;;4927409;29;20048;-63
2022/06/06 07:14:36;;;;;;;12.90;7.45;;;22.10;88.80;;;;;;4929981;29;20513;-66
2022/06/06 07:17:02;;;;;;;12.70;7.05;;;22.00;84.70;;;;;;4935177;29;20087;-73
2022/06/06 07:19:50;;;;;;;11.07;7.25;;;22.10;89.00;;;;;;4919407;29;20106;-63
2022/06/06 07:22:16;;;;;;;14.68;6.82;;;22.00;88.90;;;;;;4927730;29;20044;-63
2022/06/06 07:24:42;;;;;;;11.73;6.60;;;22.00;88.90;;;;;;4917065;29;20056;-63
2022/06/06 07:27:10;;;;;;;11.02;7.28;;;21.80;85.80;;;;;;4923491;29;20516;-62
2022/06/06 07:29:36;;;;;;;9.85;6.82;;;;;;;;;;4952131;28;20062;-65
2022/06/06 07:32:41;;;;;;;10.80;6.40;;;22.10;88.90;;;;;;4976545;28;20453;-63
2022/06/06 07:35:14;;;;;;;8.82;5.85;;;22.10;85.30;;;;;;4901743;29;20052;-62
2022/06/06 07:38:01;;;;;;;11.30;6.07;;;21.80;88.90;;;;;;4879487;29;20055;-63
2022/06/06 07:40:32;;;;;;;9.13;5.68;;;22.10;85.10;;;;;;4919486;29;20180;-63
2022/06/06 07:43:11;;;;;;;8.68;5.97;;;22.10;89.00;;;;;;4916903;29;20134;-63
2022/06/06 07:45:52;;;;;;;8.50;6.18;;;22.20;88.90;;;;;;4958620;28;20089;-63
2022/06/06 07:48:51;;;;;;;10.82;5.82;;;22.20;86.80;;;;;;4966711;28;20588;-62
2022/06/06 07:51:18;;;;;;;9.93;6.00;;;;;;;;;;4973522;28;20035;-63
2022/06/06 07:54:17;;;;;;;8.32;5.30;;;22.40;85.30;;;;;;4975395;28;20054;-64
2022/06/06 07:56:57;;;;;;;8.13;5.35;;;22.50;88.40;;;;;;4957657;28;21062;-62
2022/06/06 07:59:52;;;;;;;9.88;5.40;;;22.60;88.30;;;;;;4979132;28;20129;-60
2022/06/06 08:02:36;;;;;;;10.02;5.95;;;22.70;88.50;;;;;;4992647;28;20057;-62
2022/06/06 08:05:29;;;;;;;7.95;5.05;;;22.90;87.90;;;;;;4971281;28;20131;-64
2022/06/06 08:08:15;;;;;;;10.98;6.45;;;22.90;88.00;;;;;;4989332;28;20049;-61
2022/06/06 08:10:44;;;;;;;14.45;5.55;;;22.80;83.10;;;;;;4965817;28;20125;-62
2022/06/06 08:13:32;;;;;;;9.98;5.28;;;23.00;87.90;;;;;;5046667;28;20150;-63
2022/06/06 08:16:20;;;;;;;9.23;4.95;;;22.60;84.60;;;;;;5048204;28;20053;-62
2022/06/06 08:19:00;;;;;;;7.32;4.90;;;22.70;88.00;;;;;;5052590;28;20060;-62
2022/06/06 08:21:49;;;;;;;7.95;4.30;;;22.50;88.10;;;;;;5045897;28;20041;-61
2022/06/06 08:24:16;;;;;;;7.13;4.20;;;22.60;88.20;;;;;;5039418;28;20049;-61
2022/06/06 08:26:42;;;;;;;6.63;3.60;;;22.60;88.30;;;;;;5049786;28;20479;-61
2022/06/06 08:29:09;;;;;;;6.05;3.63;;;22.70;85.30;;;;;;5053391;28;20045;-61
2022/06/06 08:31:35;;;;;;;7.65;3.50;;;23.10;88.50;;;;;;5052612;28;20087;-62
2022/06/06 08:34:01;;;;;;;6.45;3.88;;;23.00;85.20;;;;;;5054006;28;20064;-62
2022/06/06 08:37:04;;;;;;;8.60;3.88;;;23.00;87.50;;;;;;5053805;28;20025;-61
2022/06/06 08:39:39;;;;;;;7.03;3.50;;;23.30;84.00;;;;;;5052830;28;20147;-62
2022/06/06 08:42:24;;;;;;;5.97;3.20;;;23.30;83.30;;;;;;5051947;28;20056;-60
2022/06/06 08:45:04;;;;;;;7.82;3.70;;;23.50;87.60;;;;;;5036046;28;20043;-62
2022/06/06 08:47:49;;;;;;;5.25;3.10;;;23.70;83.50;;;;;;5052512;28;20048;-67
2022/06/06 08:50:45;;;;;;;5.68;3.17;;;23.50;84.10;;;;;;5052574;28;20428;-63
2022/06/06 08:53:30;;;;;;;7.72;3.63;;;23.60;82.90;;;;;;5053252;28;20398;-64
2022/06/06 08:56:22;;;;;;;7.40;3.88;;;23.40;82.50;;;;;;5052041;28;20044;-65
2022/06/06 08:59:09;;;;;;;7.40;3.83;;;23.40;86.30;;;;;;5019919;28;20065;-65
2022/06/06 09:02:13;;;;;;;8.50;3.85;;;23.30;86.30;;;;;;5049591;28;20498;-62
2022/06/06 09:04:39;;;;;;;6.65;3.85;;;23.20;86.30;;;;;;5051388;28;20045;-61
2022/06/06 09:07:23;;;;;;;7.53;4.03;;;23.10;86.20;;;;;;5049332;28;20045;-65
2022/06/06 09:10:11;;;;;;;7.20;4.18;;;23.10;86.30;;;;;;5033533;28;20038;-63
2022/06/06 09:13:04;;;;;;;8.32;4.32;;;22.80;81.30;;;;;;5038504;28;20413;-61
2022/06/06 09:15:43;;;;;;;8.52;4.85;;;23.30;86.30;;;;;;5005452;28;20052;-62
2022/06/06 09:18:39;;;;;;;7.70;4.50;;;23.00;86.30;;;;;;5007032;28;20046;-63
2022/06/06 09:21:06;;;;;;;7.72;4.60;;;;;;;;;;5004585;28;20424;-63
2022/06/06 09:23:32;;;;;;;7.30;4.38;;;;;;;;;;4986647;28;20599;-64
2022/06/06 09:26:00;;;;;;;10.00;4.85;;;23.20;86.50;;;;;;5003486;28;20042;-62
2022/06/06 09:28:46;;;;;;;9.40;4.72;;;23.20;86.50;;;;;;5002224;28;20046;-61
2022/06/06 09:31:46;;;;;;;11.13;5.15;;;23.10;86.60;;;;;;4973054;28;20720;-63
2022/06/06 09:34:42;;;;;;;8.93;4.47;;;23.20;82.00;;;;;;5004470;28;20053;-61
2022/06/06 09:37:59;;;;;;;9.48;4.25;;;23.40;86.40;;;;;;4989248;28;20085;-63
2022/06/06 09:40:35;;;;;;;7.72;3.67;;;23.30;86.00;;;;;;4965182;28;20069;-61
2022/06/06 09:43:30;;;;;;;8.82;3.97;;;23.40;85.40;;;;;;4964012;28;20232;-62
2022/06/06 09:46:05;;;;;;;6.40;3.47;;;23.40;85.60;;;;;;4950103;28;20051;-62
2022/06/06 09:48:52;;;;;;;7.82;3.63;;;23.50;85.60;;;;;;4965249;28;20202;-61
2022/06/06 09:51:57;;;;;;;6.63;2.88;;;23.60;85.40;;;;;;4953603;28;20604;-64
2022/06/06 10:00:32;;;;;;;6.35;2.78;;;23.60;84.70;;;;;;4985634;28;20062;-62
2022/06/06 10:03:07;;;;;;;7.13;3.22;;;23.70;84.60;;;;;;4957462;28;20046;-64
2022/06/06 10:05:56;;;;;;;6.50;2.28;;;23.70;84.50;;;;;;4986698;28;20086;-64
2022/06/06 10:08:41;;;;;;;5.18;2.40;;;23.60;84.10;;;;;;4985600;28;20456;-64
2022/06/06 10:11:11;;;;;;;13.70;3.22;;;23.60;79.70;;;;;;4968481;28;20050;-69
2022/06/06 10:14:00;;;;;;;9.90;2.83;;;23.70;84.00;;;;;;4954396;28;20468;-70
2022/06/06 10:16:48;;;;;;;10.43;2.53;;;23.50;83.40;;;;;;4955221;28;20054;-61
2022/06/06 10:19:43;;;;;;;13.60;2.90;;;23.80;82.90;;;;;;4969669;28;20130;-75
2022/06/06 10:22:38;;;;;;;15.13;2.42;;;23.30;82.90;;;;;;4970100;28;20047;-84
2022/06/06 10:25:29;;;;;;;10.50;2.00;;;23.60;79.20;;;;;;4953635;28;20054;-74
2022/06/06 10:28:24;;;;;;;7.88;2.30;;;23.20;82.60;;;;;;4956504;28;20077;-82
2022/06/06 10:31:32;;;;;;;3.97;2.00;;;23.30;82.50;;;;;;4963675;28;20040;-81
2022/06/06 10:34:16;;;;;;;8.32;2.53;;;23.00;82.50;;;;;;5040828;28;20465;-74
2022/06/06 10:37:19;;;;;;;8.60;2.17;;;22.90;82.50;;;;;;5049957;28;20056;-64
2022/06/06 10:40:11;;;;;;;5.00;2.20;;;22.90;78.80;;;;;;5039523;28;20045;-64
2022/06/06 10:43:00;;;;;;;8.35;2.50;;;22.50;78.90;;;;;;5021965;28;20061;-76
2022/06/06 10:45:37;;;;;;;6.88;2.47;;;22.60;79.20;;;;;;5033681;28;20037;-65
2022/06/06 10:48:15;;;;;;;7.45;2.50;;;22.70;80.90;;;;;;5031181;28;20045;-76
2022/06/06 10:54:03;;;;;;;4.22;1.90;;;22.90;83.70;;;;;;5049868;28;20049;-67
2022/06/06 10:57:06;;;;;;;5.07;1.98;;;22.90;82.30;;;;;;5039799;28;20057;-78
2022/06/06 10:59:59;;;;;;;6.15;2.00;;;22.70;83.30;;;;;;5042866;28;20045;-63
2022/06/06 11:02:50;;;;;;;9.10;2.05;;;22.80;79.20;;;;;;5020706;28;20037;-64
2022/06/06 11:05:27;;;;;;;8.88;2.25;;;22.90;78.40;;;;;;5052601;28;20047;-70
2022/06/06 11:08:30;;;;;;;21.10;3.30;;;22.60;78.40;;;;;;5051245;28;20037;-63
2022/06/06 11:11:06;;;;;;;7.78;2.30;;;22.60;78.50;;;;;;5047731;28;20056;-65
2022/06/06 11:13:47;;;;;;;10.95;1.90;;;22.60;83.10;;;;;;5063158;28;20146;-81
2022/06/06 11:16:34;;;;;;;5.60;1.70;;;23.10;83.30;;;;;;5046902;28;20085;-61
2022/06/06 11:19:25;;;;;;;4.32;1.83;;;23.10;78.80;;;;;;5049113;28;20049;-62
2022/06/06 11:22:16;;;;;;;4.18;1.92;;;23.20;83.40;;;;;;5032157;28;20110;-66
2022/06/06 11:24:57;;;;;;;5.55;2.03;;;23.30;78.70;;;;;;5049028;28;20048;-87
2022/06/06 11:27:35;;;;;;;4.38;2.03;;;23.40;78.70;;;;;;5040647;28;20045;-76
2022/06/06 11:30:20;;;;;;;5.32;2.20;;;23.50;83.30;;;;;;5039752;28;20042;-68
2022/06/06 11:33:35;;;;;;;5.55;2.00;;;23.70;83.10;;;;;;5040973;28;20037;-62
2022/06/06 11:36:33;;;;;;;4.70;2.13;;;23.60;83.00;;;;;;5029661;28;20057;-81
2022/06/06 11:39:56;;;;;;;4.07;1.90;;;23.60;82.90;;;;;;5024576;28;20056;-61
2022/06/06 11:42:45;;;;;;;6.03;2.55;;;23.70;83.10;;;;;;5007454;28;20037;-63
2022/06/06 11:45:23;;;;;;;3.70;2.03;;;23.50;81.60;;;;;;4994004;28;20056;-60
2022/06/06 11:47:53;;;;;;;7.35;2.00;;;23.40;82.60;;;;;;5008601;28;20046;-65
2022/06/06 11:50:32;;;;;;;4.05;1.85;;;23.70;82.80;;;;;;4992040;28;20480;-62
2022/06/06 11:53:18;;;;;;;4.53;1.90;;;23.30;82.20;;;;;;5006375;28;20098;-60
2022/06/06 11:56:15;;;;;;;6.60;1.98;;;23.70;82.30;;;;;;5009122;28;20121;-60
2022/06/06 11:59:05;;;;;;;5.00;1.60;;;23.10;77.20;;;;;;4992429;28;20416;-63
2022/06/06 12:01:44;;;;;;;8.63;1.80;;;23.60;81.70;;;;;;5006682;28;20062;-62
2022/06/06 12:04:37;;;;;;;5.07;1.88;;;23.50;81.80;;;;;;5007412;28;20042;-60
2022/06/06 12:07:24;;;;;;;5.38;1.95;;;23.50;81.50;;;;;;4990738;28;20042;-63
2022/06/06 12:09:59;;;;;;;5.50;2.00;;;23.40;81.40;;;;;;4992629;28;20045;-62
2022/06/06 12:12:54;;;;;;;5.43;1.80;;;23.40;81.30;;;;;;5009615;28;20049;-61
2022/06/06 12:15:41;;;;;;;4.20;1.70;;;23.40;81.00;;;;;;5039021;28;20099;-81
2022/06/06 12:18:35;;;;;;;3.85;1.80;;;23.20;81.20;;;;;;5030196;28;20049;-63
2022/06/06 12:21:40;;;;;;;3.50;1.67;;;23.20;81.30;;;;;;5050086;28;20533;-66
2022/06/06 12:24:34;;;;;;;2.45;1.65;;;23.10;81.30;;;;;;5031726;28;20045;-63
2022/06/06 12:27:23;;;;;;;3.20;1.70;;;23.20;76.60;;;;;;5048524;28;20394;-61
2022/06/06 12:30:21;;;;;;;4.43;1.50;;;22.80;80.90;;;;;;5028022;28;20101;-74
2022/06/06 12:33:02;;;;;;;4.03;1.70;;;22.80;80.90;;;;;;5012372;28;20348;-63
2022/06/06 12:35:37;;;;;;;4.07;1.70;;;22.80;81.20;;;;;;5011364;28;20053;-70
2022/06/06 12:38:13;;;;;;;25.35;2.83;;;22.80;81.30;;;;;;5028989;28;20048;-65
2022/06/06 12:41:11;;;;;;;31.63;3.40;;;22.80;81.50;;;;;;4995658;28;20064;-62
2022/06/06 12:43:52;;;;;;;17.92;2.67;;;22.70;81.70;;;;;;5025239;28;20084;-64
2022/06/06 12:46:32;;;;;;;8.90;2.10;;;22.70;77.20;;;;;;5027401;28;20053;-66
2022/06/06 12:49:47;;;;;;;3.90;1.63;;;22.60;81.30;;;;;;5010670;28;20426;-69
2022/06/06 12:52:49;;;;;;;7.15;1.80;;;22.80;81.40;;;;;;4989543;28;20503;-67
2022/06/06 12:58:40;;;;;;;4.32;1.60;;;22.60;78.30;;;;;;5010627;28;20144;-67
2022/06/06 13:01:37;;;;;;;3.78;1.70;;;22.60;76.40;;;;;;4994622;28;20200;-66
2022/06/06 13:04:21;;;;;;;4.68;1.80;;;22.60;81.20;;;;;;4994043;28;20045;-73
2022/06/06 13:07:11;;;;;;;7.53;1.90;;;22.40;80.90;;;;;;5014769;28;20080;-64
2022/06/06 13:10:04;;;;;;;4.30;1.77;;;22.70;81.50;;;;;;5032567;28;20057;-71
2022/06/06 13:13:02;;;;;;;3.53;1.55;;;22.40;81.20;;;;;;5031481;28;20560;-67
2022/06/06 13:15:56;;;;;;;2.85;1.35;;;22.40;80.90;;;;;;5063614;28;20183;-62
2022/06/06 13:18:53;;;;;;;3.13;1.50;;;22.50;80.90;;;;;;5040124;28;20049;-62
2022/06/06 13:21:38;;;;;;;5.63;1.52;;;22.60;80.60;;;;;;5048204;28;20181;-71
2022/06/06 13:24:30;;;;;;;3.45;1.13;;;22.30;75.60;;;;;;5032316;28;20033;-63
2022/06/06 13:27:25;;;;;;;2.78;1.13;;;22.50;80.10;;;;;;5038424;28;20052;-69
2022/06/06 13:29:51;;;;;;;5.45;1.20;;;22.10;76.40;;;;;;5036923;28;20379;-62
2022/06/06 13:32:51;;;;;;;2.97;1.30;;;22.30;80.10;;;;;;5047587;28;20445;-64
2022/06/06 13:35:22;;;;;;;3.63;1.20;;;22.30;77.20;;;;;;4974289;28;20093;-61
2022/06/06 13:37:49;;;;;;;3.55;1.67;;;22.30;75.80;;;;;;4973272;28;20046;-66
2022/06/06 13:40:38;;;;;;;4.32;1.50;;;22.20;80.30;;;;;;4974066;28;20081;-61
2022/06/06 13:43:28;;;;;;;7.25;1.80;;;22.10;77.00;;;;;;4990903;28;20046;-62
2022/06/06 13:46:18;;;;;;;6.00;1.77;;;22.10;80.50;;;;;;4975398;28;20054;-61
2022/06/06 13:49:31;;;;;;;6.32;1.65;;;22.20;80.90;;;;;;4975312;28;20156;-62
2022/06/06 13:52:48;;;;;;;5.03;1.60;;;22.20;76.80;;;;;;4972266;28;20047;-61
2022/06/06 13:55:26;;;;;;;4.25;1.65;;;22.20;81.20;;;;;;4968509;28;20623;-61
2022/06/06 13:58:26;;;;;;;2.90;1.75;;;21.90;81.20;;;;;;4951637;28;20059;-62
2022/06/06 14:01:24;;;;;;;5.25;1.60;;;22.30;81.40;;;;;;4960889;28;20051;-61
2022/06/06 14:04:21;;;;;;;1.80;1.30;;;22.30;81.40;;;;;;4943576;29;20095;-61
2022/06/06 14:07:03;;;;;;;3.63;1.65;;;22.20;81.20;;;;;;4955596;28;20529;-63
2022/06/06 14:09:42;;;;;;;4.30;1.40;;;22.10;76.60;;;;;;4957592;28;20122;-68
2022/06/06 14:12:29;;;;;;;2.63;1.80;;;22.20;81.50;;;;;;4963331;28;20062;-65
2022/06/06 14:15:09;;;;;;;3.40;1.55;;;22.00;81.20;;;;;;4963145;28;20098;-63
2022/06/06 14:17:39;;;;;;;5.63;1.70;;;21.80;81.40;;;;;;4961390;28;20058;-64